Time;durP1;ratioP1;P1;durP2;ratioP2;P2;SDS_P1;SDS_P2;PMS_P1;PMS_P2;Temp;Humidity;BMP_temperature;BMP_pressure;BME280_temperature;BME280_humidity;BME280_pressure;Samples;Min_cycle;Max_cycle;Signal;HPM_P1;HPM_P2
2022/03/08 00:00:42;;;;;;;9.27;6.78;;;;;;;2.07;52.25;101175.97;5012865;28;20050;-79
2022/03/08 00:03:10;;;;;;;9.77;7.07;;;;;;;1.97;52.70;101162.84;4999457;28;20069;-78
2022/03/08 00:05:39;;;;;;;10.05;6.78;;;;;;;1.96;52.83;101166.66;5014326;28;20064;-78
2022/03/08 00:08:07;;;;;;;8.38;6.25;;;;;;;1.95;53.00;101171.34;5003711;28;20058;-78
2022/03/08 00:10:37;;;;;;;8.55;5.93;;;;;;;1.91;52.93;101170.16;5017106;28;20046;-78
2022/03/08 00:13:07;;;;;;;;;;;;;;;1.79;53.58;101172.06;5018537;28;20491;-79
2022/03/08 00:15:34;;;;;;;;;;;;;;;1.74;53.13;101169.16;5008669;28;19921;-79
2022/03/08 00:18:02;;;;;;;10.45;6.57;;;;;;;1.70;53.17;101165.22;5014570;28;20305;-78
2022/03/08 00:20:33;;;;;;;10.57;6.90;;;;;;;1.68;52.82;101167.38;5019122;28;20057;-80
2022/03/08 00:23:03;;;;;;;10.90;6.70;;;;;;;1.62;52.82;101167.25;5004885;28;20054;-80
2022/03/08 00:25:31;;;;;;;9.73;6.15;;;;;;;1.55;53.79;101168.44;5008385;28;20057;-80
2022/03/08 00:28:00;;;;;;;9.82;6.90;;;;;;;1.48;53.46;101163.06;5019258;28;20057;-80
2022/03/08 00:30:29;;;;;;;10.55;6.03;;;;;;;1.42;53.46;101155.78;5018934;28;20050;-80
2022/03/08 00:32:58;;;;;;;9.10;6.55;;;;;;;1.38;53.67;101157.31;5015586;28;20061;-80
2022/03/08 00:35:31;;;;;;;9.55;6.50;;;;;;;1.35;53.77;101155.91;5008938;28;20073;-80
2022/03/08 00:38:00;;;;;;;9.63;6.47;;;;;;;1.34;53.76;101142.41;5008752;28;20060;-79
2022/03/08 00:40:27;;;;;;;9.73;6.20;;;;;;;1.31;54.18;101148.38;5010141;28;20604;-80
2022/03/08 00:42:55;;;;;;;9.35;6.60;;;;;;;1.24;54.38;101147.63;5019414;28;20395;-79
2022/03/08 00:45:22;;;;;;;7.70;5.68;;;;;;;1.21;54.18;101148.94;5000784;28;20061;-80
2022/03/08 00:47:50;;;;;;;7.97;5.57;;;;;;;1.17;54.50;101150.47;5011471;28;20085;-80
2022/03/08 00:50:20;;;;;;;10.23;6.43;;;;;;;1.11;54.84;101152.25;5000565;28;20054;-80
2022/03/08 00:52:50;;;;;;;7.15;5.35;;;;;;;1.10;54.78;101147.84;4999921;28;20419;-80
2022/03/08 00:55:19;;;;;;;10.13;6.20;;;;;;;1.06;55.08;101141.16;5023221;28;20056;-80
2022/03/08 00:57:49;;;;;;;9.07;6.03;;;;;;;1.10;54.68;101136.03;5038757;28;20502;-80
2022/03/08 01:00:19;;;;;;;8.52;5.78;;;;;;;1.07;55.11;101131.88;5033512;28;20052;-80
2022/03/08 01:02:47;;;;;;;9.68;6.50;;;;;;;1.02;55.04;101124.31;5020344;28;20058;-80
2022/03/08 01:05:15;;;;;;;12.15;6.57;;;;;;;1.00;55.12;101128.38;5019322;28;20046;-80
2022/03/08 01:07:42;;;;;;;9.48;6.43;;;;;;;0.96;55.18;101124.44;5020899;28;20061;-80
2022/03/08 01:10:17;;;;;;;9.82;6.20;;;;;;;0.94;55.01;101127.41;5028780;28;20064;-79
2022/03/08 01:12:45;;;;;;;9.77;6.70;;;;;;;0.92;55.46;101117.75;5032292;28;20053;-80
2022/03/08 01:15:13;;;;;;;15.50;7.13;;;;;;;0.92;55.26;101123.22;5037306;28;20060;-79
2022/03/08 01:17:41;;;;;;;8.93;5.93;;;;;;;0.89;55.89;101121.78;5034749;28;20061;-80
2022/03/08 01:20:13;;;;;;;8.80;7.40;;;;;;;0.89;55.28;101110.00;5037841;28;20053;-80
2022/03/08 01:22:41;;;;;;;10.70;7.18;;;;;;;0.87;55.83;101103.91;5019132;28;20552;-80
2022/03/08 01:25:12;;;;;;;9.60;7.45;;;;;;;0.85;55.51;101097.81;5026666;28;20057;-78
2022/03/08 01:27:40;;;;;;;9.25;7.03;;;;;;;0.80;55.55;101099.34;5026688;28;20522;-79
2022/03/08 01:30:12;;;;;;;9.63;6.95;;;;;;;0.81;55.20;101100.19;5017686;28;20056;-79
2022/03/08 01:32:39;;;;;;;9.13;6.82;;;;;;;0.80;55.44;101095.78;5028751;28;20049;-79
2022/03/08 01:35:07;;;;;;;8.20;5.70;;;;;;;0.73;55.98;101095.03;5019793;28;20057;-79
2022/03/08 01:37:35;;;;;;;7.82;5.57;;;;;;;0.73;56.30;101101.34;5033683;28;20053;-79
2022/03/08 01:40:02;;;;;;;9.07;6.13;;;;;;;0.68;57.03;101093.00;5030631;28;20068;-79
2022/03/08 01:42:31;;;;;;;8.13;5.90;;;;;;;0.68;56.73;101095.75;5034969;28;20050;-79
2022/03/08 01:44:58;;;;;;;8.93;6.13;;;;;;;0.66;57.13;101086.09;5033178;28;20061;-79
2022/03/08 01:47:27;;;;;;;8.80;6.40;;;;;;;0.66;56.98;101084.16;5035373;28;20053;-78
2022/03/08 01:49:55;;;;;;;9.63;6.13;;;;;;;0.64;56.81;101083.56;5033959;28;20072;-79
2022/03/08 01:52:24;;;;;;;8.32;6.53;;;;;;;0.60;56.98;101071.38;5021744;28;20482;-78
2022/03/08 01:54:52;;;;;;;8.60;6.53;;;;;;;0.57;56.69;101082.84;5025029;28;20431;-79
2022/03/08 01:57:23;;;;;;;7.90;6.03;;;;;;;0.54;56.61;101083.28;5031052;28;20125;-78
2022/03/08 01:59:53;;;;;;;8.48;6.88;;;;;;;0.51;57.28;101086.50;5023278;28;20046;-79
2022/03/08 02:02:20;;;;;;;8.30;6.15;;;;;;;0.49;57.40;101080.41;5016993;28;20058;-78
2022/03/08 02:04:48;;;;;;;7.70;5.93;;;;;;;0.49;57.37;101072.19;5025374;28;20405;-79
2022/03/08 02:07:16;;;;;;;7.93;5.75;;;;;;;0.47;57.11;101068.84;5036706;28;20057;-78
2022/03/08 02:09:43;;;;;;;8.30;6.55;;;;;;;0.43;57.15;101065.72;5036076;28;20405;-78
2022/03/08 02:12:11;;;;;;;8.63;6.30;;;;;;;0.42;57.44;101063.22;5035406;28;20049;-78
2022/03/08 02:14:41;;;;;;;8.35;6.65;;;;;;;0.38;57.19;101060.97;5031791;28;20402;-78
2022/03/08 02:17:10;;;;;;;10.10;6.57;;;;;;;0.37;57.37;101059.28;5035784;28;20057;-79
2022/03/08 02:19:37;;;;;;;10.00;6.82;;;;;;;0.33;57.74;101058.06;5035703;28;20056;-79
2022/03/08 02:22:07;;;;;;;9.60;6.25;;;;;;;0.32;57.81;101055.56;5036906;28;20053;-78
2022/03/08 02:24:34;;;;;;;9.80;7.10;;;;;;;0.26;57.41;101053.75;5029864;28;20054;-79
2022/03/08 02:27:03;;;;;;;10.57;7.32;;;;;;;0.24;57.57;101055.91;5031636;28;20477;-79
2022/03/08 02:29:30;;;;;;;9.23;5.93;;;;;;;0.26;57.51;101059.25;5029732;28;20045;-79
2022/03/08 02:31:58;;;;;;;10.02;6.95;;;;;;;0.24;57.78;101059.47;5024556;28;20053;-79
2022/03/08 02:34:25;;;;;;;10.50;6.75;;;;;;;0.21;57.77;101057.19;5026455;28;20049;-79
2022/03/08 02:37:00;;;;;;;8.80;7.03;;;;;;;0.22;58.00;101058.84;5034986;28;20049;-79
2022/03/08 02:39:31;;;;;;;9.18;7.20;;;;;;;0.19;57.83;101057.41;5039591;28;20061;-78
2022/03/08 02:41:59;;;;;;;8.90;7.10;;;;;;;0.20;57.93;101066.47;5038820;28;20058;-79
2022/03/08 02:44:27;;;;;;;9.80;6.57;;;;;;;0.18;57.72;101058.47;5034134;28;20060;-79
2022/03/08 02:46:55;;;;;;;9.32;7.20;;;;;;;0.17;57.82;101065.03;5026515;28;20418;-79
2022/03/08 02:49:22;;;;;;;9.25;7.00;;;;;;;0.14;58.20;101065.47;5038274;28;20410;-78
2022/03/08 02:51:50;;;;;;;9.90;6.97;;;;;;;0.11;57.87;101062.38;5026290;28;20086;-78
2022/03/08 02:54:17;;;;;;;10.32;7.05;;;;;;;0.13;57.80;101063.00;5030459;28;20046;-79
2022/03/08 02:56:46;;;;;;;8.90;6.53;;;;;;;0.15;57.69;101069.91;5028008;28;20053;-78
2022/03/08 02:59:20;;;;;;;7.50;5.80;;;;;;;0.11;57.76;101068.69;5023524;28;20068;-79
2022/03/08 03:01:47;;;;;;;10.40;6.53;;;;;;;0.09;58.31;101075.47;5028423;28;20487;-78
2022/03/08 03:04:15;;;;;;;10.23;6.75;;;;;;;0.07;58.14;101061.16;5029427;28;20072;-79
2022/03/08 03:06:44;;;;;;;9.68;7.20;;;;;;;0.06;58.41;101065.78;5024641;28;20049;-79
2022/03/08 03:09:16;;;;;;;9.63;6.68;;;;;;;0.06;58.02;101064.97;5027961;28;20073;-78
2022/03/08 03:11:44;;;;;;;8.65;6.65;;;;;;;0.08;58.01;101060.91;5028235;28;20061;-79
2022/03/08 03:14:12;;;;;;;9.50;6.47;;;;;;;0.05;58.34;101061.41;5036652;28;20056;-80
2022/03/08 03:16:40;;;;;;;10.55;7.93;;;;;;;0.02;58.43;101052.78;5028084;28;20061;-80
2022/03/08 03:19:07;;;;;;;8.65;6.32;;;;;;;0.02;58.59;101052.78;5028938;28;20486;-79
2022/03/08 03:21:35;;;;;;;9.15;7.05;;;;;;;-0.01;58.55;101060.41;5029895;28;21088;-79
2022/03/08 03:24:06;;;;;;;7.97;5.93;;;;;;;-0.08;58.85;101051.44;5028095;28;20053;-79
2022/03/08 03:26:34;;;;;;;8.73;6.28;;;;;;;-0.05;58.76;101045.50;5031834;28;20414;-79
2022/03/08 03:29:01;;;;;;;7.15;5.60;;;;;;;-0.07;58.94;101049.53;5032989;28;20057;-78
2022/03/08 03:31:30;;;;;;;9.73;6.35;;;;;;;-0.12;59.03;101041.19;5028294;28;20060;-79
2022/03/08 03:33:58;;;;;;;8.00;6.38;;;;;;;-0.11;58.75;101038.19;5029251;28;20077;-79
2022/03/08 03:36:25;;;;;;;8.50;6.25;;;;;;;-0.15;58.83;101034.25;5024412;28;20062;-79
2022/03/08 03:38:54;;;;;;;7.45;6.13;;;;;;;-0.14;59.02;101030.47;5025713;28;20406;-79
2022/03/08 03:41:21;;;;;;;8.63;6.78;;;;;;;-0.17;59.20;101024.59;5031971;28;20052;-79
2022/03/08 03:43:48;;;;;;;8.23;6.38;;;;;;;-0.21;59.18;101027.81;5037223;28;20054;-80
2022/03/08 03:46:16;;;;;;;11.00;7.28;;;;;;;-0.22;59.11;101019.81;5031786;28;20060;-78
2022/03/08 03:48:55;;;;;;;8.70;6.65;;;;;;;-0.25;59.52;101023.84;5027021;28;20045;-78
2022/03/08 03:51:22;;;;;;;10.43;6.50;;;;;;;-0.26;59.00;101024.06;5032757;28;20049;-79
2022/03/08 03:53:50;;;;;;;9.85;7.22;;;;;;;-0.30;59.07;101022.84;5030405;28;20053;-79
2022/03/08 03:56:19;;;;;;;9.90;6.13;;;;;;;-0.29;59.30;101024.53;5037024;28;20490;-78
2022/03/08 03:58:46;;;;;;;9.45;6.85;;;;;;;-0.27;59.29;101027.88;5022077;28;20053;-79
2022/03/08 04:01:16;;;;;;;10.32;7.38;;;;;;;-0.28;59.06;101027.03;5028844;28;20050;-79
2022/03/08 04:03:45;;;;;;;10.95;7.20;;;;;;;-0.28;59.28;101031.69;5023946;28;20064;-79
2022/03/08 04:06:13;;;;;;;8.73;7.07;;;;;;;-0.32;59.32;101024.97;5034309;28;20054;-79
2022/03/08 04:08:40;;;;;;;10.70;7.10;;;;;;;-0.34;59.51;101024.38;5036830;28;20061;-78
2022/03/08 04:11:07;;;;;;;8.48;7.20;;;;;;;-0.37;59.57;101022.13;5033859;28;20065;-79
2022/03/08 04:13:35;;;;;;;7.93;5.90;;;;;;;-0.36;59.65;101023.78;5030507;28;20056;-78
2022/03/08 04:16:02;;;;;;;8.90;7.00;;;;;;;-0.37;59.41;101019.38;5035245;28;20052;-80
2022/03/08 04:18:30;;;;;;;10.02;7.32;;;;;;;-0.43;59.66;101019.22;5021433;28;20050;-79
2022/03/08 04:21:04;;;;;;;8.50;6.63;;;;;;;-0.42;59.61;101026.38;5031414;28;20058;-78
2022/03/08 04:23:32;;;;;;;9.43;7.15;;;;;;;-0.40;59.43;101012.44;5032864;28;20069;-78
2022/03/08 04:25:59;;;;;;;9.65;7.28;;;;;;;-0.41;59.43;101017.06;5035946;28;20317;-79
2022/03/08 04:28:27;;;;;;;12.60;7.88;;;;;;;-0.43;59.35;101023.84;5023368;28;20076;-79
2022/03/08 04:30:54;;;;;;;9.57;7.22;;;;;;;-0.45;59.44;101026.81;5024734;28;20406;-78
2022/03/08 04:33:25;;;;;;;12.55;8.18;;;;;;;-0.46;59.74;101016.94;5036563;28;20053;-79
2022/03/08 04:35:53;;;;;;;10.77;7.35;;;;;;;-0.47;59.86;101020.72;5028002;28;20046;-78
2022/03/08 04:38:21;;;;;;;11.10;7.85;;;;;;;-0.43;59.67;101019.22;5018313;28;20498;-79
2022/03/08 04:40:49;;;;;;;10.68;7.95;;;;;;;-0.42;59.89;101022.78;5035813;28;20422;-79
2022/03/08 04:43:16;;;;;;;10.25;7.20;;;;;;;-0.46;59.97;101022.41;5036894;28;20054;-79
2022/03/08 04:45:43;;;;;;;12.13;7.95;;;;;;;-0.48;59.92;101019.06;5025272;28;20057;-78
2022/03/08 04:48:11;;;;;;;12.55;8.10;;;;;;;-0.48;59.96;101021.81;5036737;28;20049;-79
2022/03/08 04:50:38;;;;;;;10.38;7.75;;;;;;;-0.50;60.23;101021.19;5034545;28;20057;-79
2022/03/08 04:53:06;;;;;;;11.48;7.70;;;;;;;-0.50;60.23;101018.47;5028083;28;20060;-79
2022/03/08 04:55:34;;;;;;;11.32;7.93;;;;;;;-0.53;60.41;101018.91;5035558;28;20061;-80
2022/03/08 04:58:02;;;;;;;12.30;8.20;;;;;;;-0.52;60.27;101012.38;5033920;28;20041;-80
2022/03/08 05:00:29;;;;;;;10.38;7.90;;;;;;;-0.52;60.60;101015.13;5032886;28;20388;-80
2022/03/08 05:02:56;;;;;;;11.65;8.65;;;;;;;-0.52;60.17;101022.50;5036300;28;20470;-79
2022/03/08 05:05:24;;;;;;;11.80;8.57;;;;;;;-0.55;60.00;101018.28;5016933;28;20061;-79
2022/03/08 05:07:51;;;;;;;12.18;8.25;;;;;;;-0.54;60.26;101019.16;5031455;28;20060;-80
2022/03/08 05:10:19;;;;;;;13.20;9.25;;;;;;;-0.53;60.25;101016.16;5034247;28;20046;-79
2022/03/08 05:12:47;;;;;;;13.88;8.80;;;;;;;-0.53;60.34;101015.34;5035848;28;20057;-80
2022/03/08 05:15:15;;;;;;;12.52;8.60;;;;;;;-0.54;60.54;101016.41;5030096;28;20058;-80
2022/03/08 05:17:42;;;;;;;12.50;8.35;;;;;;;-0.53;60.24;101018.06;5035445;28;20053;-80
2022/03/08 05:20:10;;;;;;;11.20;8.50;;;;;;;-0.57;60.07;101016.84;5034117;28;20069;-79
2022/03/08 05:22:38;;;;;;;11.55;8.27;;;;;;;-0.62;60.44;101018.38;5036890;28;20049;-80
2022/03/08 05:25:06;;;;;;;12.93;8.18;;;;;;;-0.59;62.04;101014.34;5036834;28;20164;-79
2022/03/08 05:27:34;;;;;;;13.45;9.07;;;;;;;-0.54;61.37;101022.72;5036719;28;20069;-80
2022/03/08 05:30:04;;;;;;;13.18;8.60;;;;;;;-0.52;60.89;101015.13;5031611;28;20046;-79
2022/03/08 05:32:32;;;;;;;14.23;9.48;;;;;;;-0.52;60.33;101019.75;5015422;28;20062;-79
2022/03/08 05:34:59;;;;;;;11.57;8.60;;;;;;;-0.62;60.33;101015.63;5023654;28;20053;-80
2022/03/08 05:37:26;;;;;;;12.43;8.57;;;;;;;-0.61;60.35;101016.47;5032073;28;20053;-79
2022/03/08 05:39:54;;;;;;;11.82;8.60;;;;;;;-0.62;60.57;101017.53;5033367;28;20060;-79
2022/03/08 05:42:22;;;;;;;12.50;8.57;;;;;;;-0.62;60.49;101018.38;5013938;28;20057;-80
2022/03/08 05:44:49;;;;;;;9.80;7.78;;;;;;;-0.61;60.47;101019.19;5035378;28;20053;-80
2022/03/08 05:47:18;;;;;;;13.30;8.20;;;;;;;-0.65;60.51;101020.72;5018599;28;20062;-80
2022/03/08 05:49:45;;;;;;;12.25;8.82;;;;;;;-0.69;60.71;101017.63;5015856;28;20443;-80
2022/03/08 05:52:13;;;;;;;11.93;8.95;;;;;;;-0.73;60.87;101023.75;5015121;28;20050;-80
2022/03/08 05:54:40;;;;;;;12.65;8.40;;;;;;;-0.76;60.71;101007.78;5025815;28;20060;-80
2022/03/08 05:57:07;;;;;;;9.20;7.43;;;;;;;-0.75;60.67;101013.03;5016546;28;20054;-81
2022/03/08 05:59:35;;;;;;;12.35;8.25;;;;;;;-0.74;60.70;101016.59;5031376;28;20045;-80
2022/03/08 06:02:02;;;;;;;11.77;8.07;;;;;;;-0.76;60.72;101018.72;5016614;28;20058;-81
2022/03/08 06:04:31;;;;;;;13.80;9.65;;;;;;;-0.77;60.41;101020.63;5017793;28;20057;-80
2022/03/08 06:06:58;;;;;;;12.52;9.18;;;;;;;-0.75;60.42;101021.25;5030142;28;20387;-80
2022/03/08 06:09:25;;;;;;;14.80;9.60;;;;;;;-0.78;60.51;101015.38;5038053;28;20045;-80
2022/03/08 06:11:53;;;;;;;16.92;10.32;;;;;;;-0.75;60.42;101020.41;5038320;28;20053;-80
2022/03/08 06:14:20;;;;;;;13.32;9.13;;;;;;;-0.69;60.56;101025.00;5039233;28;20490;-80
2022/03/08 06:16:48;;;;;;;15.82;8.75;;;;;;;-0.72;60.77;101029.00;5036769;28;20379;-79
2022/03/08 06:19:15;;;;;;;13.45;8.70;;;;;;;-0.70;61.10;101023.31;5038553;28;20049;-80
2022/03/08 06:21:46;;;;;;;15.38;8.98;;;;;;;-0.62;61.16;101033.94;5029808;28;20053;-79
2022/03/08 06:24:13;;;;;;;10.90;7.90;;;;;;;-0.62;61.05;101036.69;5037870;28;20057;-79
2022/03/08 06:26:41;;;;;;;13.88;9.20;;;;;;;-0.58;61.00;101026.97;5028132;28;20517;-79
2022/03/08 06:29:09;;;;;;;12.90;9.40;;;;;;;-0.53;61.03;101037.22;5034725;28;20053;-79
2022/03/08 06:31:37;;;;;;;13.20;9.23;;;;;;;-0.50;61.19;101045.00;5036104;28;20049;-80
2022/03/08 06:34:04;;;;;;;13.77;9.30;;;;;;;-0.49;60.87;101042.00;5037668;28;20124;-78
2022/03/08 06:36:32;;;;;;;14.57;8.98;;;;;;;-0.44;60.99;101047.66;5037084;28;20056;-80
2022/03/08 06:39:01;;;;;;;14.10;9.88;;;;;;;-0.14;60.92;101055.09;5024087;28;20049;-80
2022/03/08 06:41:28;;;;;;;12.50;9.30;;;;;;;0.80;59.06;101049.16;5031324;28;20046;-80
2022/03/08 06:43:55;;;;;;;13.60;9.77;;;;;;;1.60;56.37;101047.78;5019224;28;21055;-81
2022/03/08 06:46:23;;;;;;;11.65;9.40;;;;;;;2.25;54.24;101046.66;5033108;28;20049;-80
2022/03/08 06:48:50;;;;;;;8.32;5.72;;;;;;;3.10;52.51;101050.34;5038271;28;20458;-80
2022/03/08 06:51:17;;;;;;;10.95;7.63;;;;;;;3.92;50.29;101046.03;5032478;28;20053;-80
2022/03/08 06:53:44;;;;;;;8.88;6.65;;;;;;;4.71;49.13;101044.72;5038021;28;20054;-80
2022/03/08 06:56:15;;;;;;;9.88;7.53;;;;;;;5.41;47.59;101050.28;5037072;28;20061;-80
2022/03/08 06:58:42;;;;;;;8.52;6.78;;;;;;;6.23;45.56;101046.03;5023380;28;20053;-80
2022/03/08 07:01:10;;;;;;;10.50;7.05;;;;;;;7.16;43.33;101041.50;5019834;28;20061;-79
2022/03/08 07:03:37;;;;;;;7.45;6.18;;;;;;;7.96;42.18;101032.47;5030003;28;20148;-79
2022/03/08 07:06:05;;;;;;;8.95;5.93;;;;;;;8.90;40.57;101034.44;5040318;28;20053;-81
2022/03/08 07:08:33;;;;;;;9.65;6.85;;;;;;;9.77;38.08;101041.16;5038250;28;20056;-81
2022/03/08 07:11:00;;;;;;;7.25;6.55;;;;;;;10.54;36.23;101030.75;5033919;28;20053;-81
2022/03/08 07:13:29;;;;;;;10.88;6.72;;;;;;;11.04;34.80;101029.44;5035064;28;20057;-81
2022/03/08 07:15:57;;;;;;;11.55;7.07;;;;;;;11.92;33.59;101026.75;5035800;28;20049;-81
2022/03/08 07:18:32;;;;;;;14.05;6.97;;;;;;;12.72;32.23;101032.84;5031798;28;20061;-79
2022/03/08 07:21:03;;;;;;;9.50;6.80;;;;;;;13.47;30.82;101036.06;5034213;28;20056;-80
2022/03/08 07:23:33;;;;;;;10.88;7.55;;;;;;;13.86;29.85;101026.03;5031158;28;20073;-78
2022/03/08 07:26:00;;;;;;;9.55;7.20;;;;;;;14.58;28.75;101022.81;5035716;28;20050;-80
2022/03/08 07:28:31;;;;;;;9.88;7.32;;;;;;;15.30;27.47;101026.06;5037003;28;20053;-79
2022/03/08 07:30:59;;;;;;;10.32;7.50;;;;;;;15.96;26.86;101022.94;5031319;28;20072;-79
2022/03/08 07:33:26;;;;;;;9.95;8.25;;;;;;;16.44;25.93;101012.41;5038484;28;20064;-80
2022/03/08 07:35:55;;;;;;;11.00;8.98;;;;;;;17.11;25.39;101012.56;5038377;28;20054;-79
2022/03/08 07:38:22;;;;;;;12.40;7.97;;;;;;;17.55;25.08;101015.75;5037980;28;20398;-81
2022/03/08 07:40:51;;;;;;;11.40;8.60;;;;;;;18.35;23.51;101005.94;5027975;28;20047;-82
2022/03/08 07:43:19;;;;;;;10.43;8.73;;;;;;;18.81;22.85;101015.06;5029656;28;20065;-82
2022/03/08 07:45:55;;;;;;;13.98;10.05;;;;;;;19.37;22.62;101009.41;5021605;28;20418;-84
2022/03/08 07:48:23;;;;;;;8.32;7.35;;;;;;;19.85;21.78;101004.66;5033351;28;20132;-81
2022/03/08 07:50:50;;;;;;;8.82;7.57;;;;;;;20.22;21.52;101006.34;5036910;28;20425;-82
2022/03/08 07:53:20;;;;;;;10.10;7.65;;;;;;;20.77;20.70;101012.13;5045551;28;20065;-82
2022/03/08 07:55:48;;;;;;;9.65;7.78;;;;;;;21.13;20.57;101016.50;5034774;28;20069;-81
2022/03/08 07:58:21;;;;;;;9.52;7.47;;;;;;;21.29;20.16;101011.59;5038212;28;20053;-81
2022/03/08 08:00:53;;;;;;;10.20;7.97;;;;;;;21.73;19.84;101013.22;5041178;28;20049;-83
2022/03/08 08:03:28;;;;;;;9.35;7.63;;;;;;;22.35;19.23;101012.25;5032169;28;20049;-81
2022/03/08 08:05:59;;;;;;;9.00;6.78;;;;;;;22.77;19.38;101012.06;5032937;28;20057;-83
2022/03/08 08:08:28;;;;;;;10.23;6.88;;;;;;;23.18;19.14;100998.00;5033981;28;20485;-81
2022/03/08 08:10:55;;;;;;;7.85;6.90;;;;;;;23.77;18.24;100998.22;5036589;28;20065;-81
2022/03/08 08:13:28;;;;;;;9.77;6.53;;;;;;;24.39;17.52;101003.19;5036920;28;20056;-81
2022/03/08 08:15:55;;;;;;;9.05;7.65;;;;;;;24.78;16.88;101001.78;5035852;28;20084;-82
2022/03/08 08:18:24;;;;;;;10.27;6.75;;;;;;;25.62;15.92;101005.38;5035337;28;20065;-81
2022/03/08 08:20:51;;;;;;;8.73;6.00;;;;;;;25.84;15.27;101000.50;5038028;28;20053;-81
2022/03/08 08:23:19;;;;;;;9.45;6.78;;;;;;;26.18;14.94;101000.13;5042633;28;20057;-82
2022/03/08 08:25:46;;;;;;;8.05;5.50;;;;;;;26.84;14.64;100995.94;5042926;28;20061;-83
2022/03/08 08:28:14;;;;;;;7.93;6.38;;;;;;;27.42;13.85;100997.28;5046468;28;20064;-83
2022/03/08 08:30:41;;;;;;;7.30;4.90;;;;;;;27.84;13.40;100991.69;5035377;28;20049;-78
2022/03/08 08:33:09;;;;;;;6.35;5.65;;;;;;;27.84;13.32;101003.94;5033472;28;20075;-78
2022/03/08 08:35:40;;;;;;;7.78;6.00;;;;;;;28.44;13.30;100990.34;5033916;28;20101;-80
2022/03/08 08:38:07;;;;;;;5.32;4.82;;;;;;;28.56;12.93;100991.91;5034448;28;20060;-79
2022/03/08 08:40:41;;;;;;;5.63;5.00;;;;;;;28.31;11.64;101001.53;5037052;28;20052;-85
2022/03/08 08:43:08;;;;;;;4.57;4.05;;;;;;;27.38;12.73;100987.09;5028808;28;20046;-79
2022/03/08 08:45:39;;;;;;;4.38;3.92;;;;;;;25.94;13.38;100993.19;5036296;28;20049;-84
2022/03/08 08:48:08;;;;;;;4.88;4.20;;;;;;;25.49;13.66;100993.53;5034534;28;20049;-84
2022/03/08 08:50:37;;;;;;;4.38;3.97;;;;;;;24.74;14.11;100981.84;5054809;28;20397;-84
2022/03/08 08:53:05;;;;;;;5.28;4.53;;;;;;;24.04;14.35;100995.19;5045978;28;20060;-84
2022/03/08 08:55:33;;;;;;;4.68;4.10;;;;;;;25.59;13.50;100982.53;5054432;28;20057;-85
2022/03/08 08:58:01;;;;;;;5.10;4.30;;;;;;;24.74;13.42;100987.56;5034820;28;20139;-82
2022/03/08 09:00:30;;;;;;;4.63;3.90;;;;;;;23.56;14.86;100989.44;5033324;28;20050;-84
2022/03/08 09:02:57;;;;;;;5.25;4.50;;;;;;;23.09;15.08;100989.75;5044449;28;20041;-84
2022/03/08 09:05:26;;;;;;;5.53;5.03;;;;;;;22.38;15.48;100983.09;5038589;28;20049;-82
2022/03/08 09:07:56;;;;;;;5.88;5.05;;;;;;;20.80;16.37;100998.00;5030538;28;20045;-84
2022/03/08 09:10:23;;;;;;;6.05;4.65;;;;;;;21.07;16.59;100984.81;5049049;28;20129;-82
2022/03/08 09:12:51;;;;;;;4.50;4.10;;;;;;;21.75;16.18;100967.47;5035331;28;20049;-84
2022/03/08 09:15:19;;;;;;;5.35;4.85;;;;;;;22.64;15.55;100974.56;5036118;28;20064;-82
2022/03/08 09:17:47;;;;;;;5.53;4.88;;;;;;;23.06;15.03;100984.06;5030956;28;20050;-80
2022/03/08 09:20:14;;;;;;;6.78;4.95;;;;;;;21.66;15.85;100970.56;5044128;28;20052;-81
2022/03/08 09:22:46;;;;;;;5.35;4.32;;;;;;;22.38;15.68;100949.03;5051291;28;20053;-82
2022/03/08 09:25:18;;;;;;;5.13;4.50;;;;;;;21.97;16.05;100958.13;5037770;28;20457;-82
2022/03/08 09:27:46;;;;;;;5.40;4.80;;;;;;;21.80;15.87;100953.81;5036679;28;20064;-81
2022/03/08 09:30:14;;;;;;;5.20;4.70;;;;;;;22.06;15.29;100964.34;5039679;28;20073;-83
2022/03/08 09:32:41;;;;;;;5.47;4.97;;;;;;;21.57;16.13;100964.34;5040264;28;20053;-83
2022/03/08 09:35:10;;;;;;;6.03;4.78;;;;;;;22.17;15.87;100950.31;5041614;28;20053;-83
2022/03/08 09:37:39;;;;;;;;;;;;;;;21.53;15.80;100955.78;5048018;28;20055;-82
2022/03/08 09:40:09;;;;;;;6.13;4.85;;;;;;;21.56;15.64;100952.16;5045569;28;19921;-83
2022/03/08 09:42:39;;;;;;;5.03;4.63;;;;;;;21.89;15.67;100957.19;5046995;28;20049;-83
2022/03/08 09:45:08;;;;;;;5.40;4.78;;;;;;;21.42;15.48;100951.94;5044869;28;20045;-83
2022/03/08 09:47:35;;;;;;;5.22;4.72;;;;;;;20.91;16.49;100944.44;5038766;28;20060;-83
2022/03/08 09:50:04;;;;;;;5.40;4.90;;;;;;;21.39;16.12;100942.13;5043861;28;20049;-81
2022/03/08 09:52:35;;;;;;;5.43;4.88;;;;;;;21.43;16.03;100943.03;5045048;28;20061;-84
2022/03/08 09:55:06;;;;;;;6.32;5.53;;;;;;;20.99;16.08;100946.22;5051160;28;20422;-80
2022/03/08 09:57:37;;;;;;;5.20;4.70;;;;;;;21.39;16.02;100944.94;5038727;28;20053;-83
2022/03/08 10:00:12;;;;;;;5.43;4.47;;;;;;;20.96;16.50;100935.66;5043035;28;20045;-84
2022/03/08 10:02:48;;;;;;;5.13;4.63;;;;;;;22.70;14.62;100944.63;5043981;28;20152;-83
2022/03/08 10:05:17;;;;;;;4.80;4.30;;;;;;;23.35;14.94;100924.66;5046435;28;20055;-84
2022/03/08 10:08:14;;;;;;;4.78;4.32;;;;;;;23.63;14.14;100919.25;5045933;28;20049;-83
2022/03/08 10:10:49;;;;;;;5.93;4.28;;;;;;;24.76;13.39;100915.91;5027640;28;20054;-83
2022/03/08 10:13:18;;;;;;;5.70;4.55;;;;;;;25.47;13.25;100915.28;5017724;28;20060;-83
2022/03/08 10:15:47;;;;;;;5.57;3.88;;;;;;;25.09;12.90;100915.63;5044469;28;20049;-84
2022/03/08 10:18:32;;;;;;;4.95;3.97;;;;;;;24.31;13.15;100910.38;5041533;28;20053;-84
2022/03/08 10:21:00;;;;;;;4.35;3.95;;;;;;;22.84;14.64;100920.44;5042006;28;20060;-82
2022/03/08 10:23:27;;;;;;;5.35;3.75;;;;;;;24.06;13.83;100896.81;5045557;28;20486;-80
2022/03/08 10:26:03;;;;;;;4.25;3.78;;;;;;;23.41;13.53;100881.25;5034596;28;20076;-81
2022/03/08 10:28:31;;;;;;;4.40;3.70;;;;;;;24.03;14.05;100888.28;5048282;28;20049;-83
2022/03/08 10:30:59;;;;;;;4.32;3.92;;;;;;;22.92;14.05;100895.78;5046878;28;20050;-81
2022/03/08 10:33:38;;;;;;;5.18;3.63;;;;;;;23.15;13.64;100887.13;5044441;28;20056;-82
2022/03/08 10:36:13;;;;;;;5.55;4.18;;;;;;;23.14;13.93;100886.31;5028912;28;20054;-82
2022/03/08 10:38:41;;;;;;;4.13;3.72;;;;;;;23.91;13.57;100883.72;5038125;28;20053;-79
2022/03/08 10:41:19;;;;;;;4.07;3.67;;;;;;;24.89;12.86;100877.28;5020519;28;20053;-78
2022/03/08 10:43:57;;;;;;;4.10;3.70;;;;;;;25.47;12.24;100866.78;5034392;28;20053;-82
2022/03/08 10:46:29;;;;;;;4.07;3.67;;;;;;;25.28;12.66;100871.69;5031476;28;20488;-78
2022/03/08 10:48:56;;;;;;;4.30;3.90;;;;;;;23.76;13.34;100857.19;5034017;28;20061;-81
2022/03/08 10:51:24;;;;;;;5.47;3.70;;;;;;;24.33;12.92;100870.13;5032357;28;20046;-79
2022/03/08 10:53:53;;;;;;;4.25;3.85;;;;;;;24.85;12.74;100856.53;5031158;28;20056;-82
2022/03/08 10:56:23;;;;;;;4.30;3.58;;;;;;;23.36;13.18;100855.22;5044305;28;20052;-81
2022/03/08 10:58:52;;;;;;;4.15;3.38;;;;;;;23.87;13.31;100846.69;5041670;28;20053;-82
2022/03/08 11:01:19;;;;;;;4.10;3.60;;;;;;;24.13;13.06;100833.44;5043221;28;20046;-83
2022/03/08 11:03:58;;;;;;;3.95;3.42;;;;;;;25.38;12.32;100841.53;5044017;28;20485;-82
2022/03/08 11:06:26;;;;;;;3.67;3.38;;;;;;;24.39;12.84;100842.91;5044954;28;20060;-82
2022/03/08 11:08:54;;;;;;;3.88;3.45;;;;;;;24.25;12.99;100838.78;5043781;28;20053;-82
2022/03/08 11:11:22;;;;;;;3.80;3.22;;;;;;;25.13;12.30;100835.78;5045285;28;20056;-83
2022/03/08 11:13:52;;;;;;;4.00;3.60;;;;;;;24.73;12.67;100840.59;5043808;28;20057;-83
2022/03/08 11:16:19;;;;;;;3.80;3.40;;;;;;;26.73;11.50;100828.16;5043421;28;20053;-82
2022/03/08 11:18:52;;;;;;;3.75;3.20;;;;;;;26.22;11.56;100821.03;5042615;28;20510;-82
2022/03/08 11:21:21;;;;;;;3.85;3.40;;;;;;;26.58;11.34;100818.03;5047493;28;20053;-82
2022/03/08 11:23:54;;;;;;;4.47;3.50;;;;;;;26.32;11.76;100822.22;5054116;28;20052;-80
2022/03/08 11:26:23;;;;;;;4.28;3.38;;;;;;;26.04;11.50;100823.97;5043333;28;20057;-82
2022/03/08 11:28:50;;;;;;;3.40;3.10;;;;;;;25.87;11.77;100816.19;5042622;28;20056;-81
2022/03/08 11:31:22;;;;;;;4.10;3.65;;;;;;;25.30;11.87;100814.25;5043224;28;20050;-82
2022/03/08 11:33:59;;;;;;;3.60;3.20;;;;;;;25.30;12.38;100811.38;5049278;28;20049;-81